메인 페이지
METAR-TAF:

METAR-TAF

공항 :

세이셸 국제공항

빅토리아, 마에 섬, 세이셸

위도: 04-40S, 경도: 055-31E, 고도: 3m

현재 날씨관측

예보는 7분 전, 08:00시(UTC)에 발표되었습니다.
남동13kt
온도 29°C
습도 79%
기압 1012 hPa
시정 10km 이상
고도 1700ft 상공 구름 조금, 적란운.
고도 2000ft 상공 구름 많음

METAR: FSIA 040800Z 13013KT 9999 FEW017CB BKN020 29/25 Q1012 TEMPO 8000 -SHRA

시각: 12:07 (08:07 UTC)

예보

예보는 3 시간 4분 전, 05:03시(UTC)에 발표되었습니다.
예보 대상 시간: 04일 06시부터 05일 06시까지 (UTC)
남남동12kt
시정 10km 이상
고도 1800ft 상공 구름 조금, 적란운.
고도 2200ft 상공 구름 보통
일시적
04일 08시부터 04일 16시까지 (UTC)
시정: 8000m
고도 1600ft 상공 구름 조금, 적란운.
고도 1900ft 상공 구름 많음
소나기
확률 40% :
일시적
04일 10시부터 04일 12시까지 (UTC)
남동12kt, 순간 최대 풍속 22kt
시정: 8000m
고도 1500ft 상공 구름 조금, 적란운.
고도 1800ft 상공 구름 많음
뇌우, 약한비
일시적
04일 22시부터 05일 02시까지 (UTC)
고도 1800ft 상공 구름 조금, 적란운.
고도 2000ft 상공 구름 많음
약한소나기

TAF: FSIA 040503Z 0406/0506 16012KT 9999 FEW018CB SCT022 TEMPO 0408/0416 8000 SHRA FEW016CB BKN019 PROB40 TEMPO 0410/0412 13012G22KT 8000 -TSRA FEW015CB BKN018 TEMPO 0422/0502 -SHRA FEW018CB BKN020

4,000개 이상의 공항 관측 자료 및 예보 (METAR 및 TAF 보고).

지도상에서 검색 가능한 기상관측소가 노란 점과 빨간 점으로 표시되어 있습니다.

기상관측소 명을 보려면 표시 위로 마우스를 이동하세요.

날씨 관측과 예보를 보려면 클릭하세요.

지도 변경 : 확대하려면 엑스 표시가 있는 녹색 버튼, 축소하려면 빼기 표시가 있는 녹색 버튼, 다음 페이지의 지도를 보려면 녹색 화살표를 클릭하세요.


METAR-TAF: